This is the latest recevied weather packets stored in our database for station/object M0TJX-1. If no packets are shown the sender has not sent any weather packets the latest 10 day(s).
| Time | Temp. | Humidity | Pressure | Rain* | Wind** | Luminosity | Snow |
|---|---|---|---|---|---|---|---|
| 1787865922 | 19.44° C | 80% | 1007.7 hPa | 0 mm | - | - | - |
| 1787865022 | 19.44° C | 80% | 1007.7 hPa | 0 mm | - | - | - |
| 1787864122 | 19.44° C | 79% | 1007.7 hPa | 0 mm | - | - | - |
| 1787863222 | 19.44° C | 78% | 1007.7 hPa | 0 mm | - | - | - |
| 1787862322 | 19.44° C | 79% | 1007.3 hPa | 0 mm | - | - | - |
| 1787861422 | 19.44° C | 78% | 1007.1 hPa | 0 mm | - | - | - |
| 1787860522 | 19.44° C | 77% | 1007.2 hPa | 0 mm | - | - | - |
| 1787859622 | 20° C | 75% | 1007.1 hPa | 0 mm | - | - | - |
| 1787858722 | 20° C | 74% | 1007.1 hPa | 0 mm | - | - | - |
| 1787857822 | 20.56° C | 72% | 1006.7 hPa | 0 mm | - | - | - |
| 1787856922 | 21.11° C | 70% | 1006.5 hPa | 0 mm | - | - | - |
| 1787856022 | 21.67° C | 67% | 1006.5 hPa | 0 mm | - | - | - |
| 1787855122 | 22.22° C | 63% | 1006.6 hPa | 0 mm | - | - | - |
| 1787854222 | 22.78° C | 60% | 1006.7 hPa | 0 mm | - | - | - |
| 1787853322 | 23.89° C | 58% | 1006.6 hPa | 0 mm | - | - | - |
| 1787852422 | 23.89° C | 56% | 1006.5 hPa | 0 mm | - | - | - |
| 1787851522 | 23.89° C | 56% | 1006.7 hPa | 0 mm | - | - | - |
| 1787850622 | 23.89° C | 58% | 1007 hPa | 0 mm | - | - | - |
| 1787849722 | 24.44° C | 55% | 1006.8 hPa | 0 mm | - | - | - |
| 1787848822 | 24.44° C | 57% | 1006.6 hPa | 0 mm | - | - | - |
| 1787847922 | 25° C | 58% | 1006.6 hPa | 0 mm | - | - | - |
| 1787847022 | 24.44° C | 59% | 1006.9 hPa | 0 mm | - | - | - |
| 1787846122 | 25° C | 57% | 1007 hPa | 0 mm | - | - | - |
| 1787845222 | 25° C | 57% | 1007.1 hPa | 0 mm | - | - | - |
| 1787844322 | 24.44° C | 58% | 1006.9 hPa | 0 mm | - | - | - |
* Rain latest hour (hover to see other rain measurements)
** Current wind speed in m/s (hover to see current wind gust speed)